createdAt,value
2019-03-19T00:00:58.105Z,0.00
2019-03-19T00:01:58.075Z,0.00
2019-03-19T00:02:58.049Z,0.00
2019-03-19T00:03:58.011Z,0.00
2019-03-19T00:04:57.978Z,0.00
2019-03-19T00:05:57.946Z,0.00
2019-03-19T00:06:57.914Z,0.00
2019-03-19T00:07:57.923Z,0.00
2019-03-19T00:08:57.852Z,0.00
2019-03-19T00:09:57.822Z,0.00
2019-03-19T00:10:57.786Z,0.00
2019-03-19T00:11:58.028Z,0.00
2019-03-19T00:12:57.724Z,0.00
2019-03-19T00:13:57.697Z,0.00
2019-03-19T00:14:57.661Z,0.00
2019-03-19T00:15:57.627Z,0.00
2019-03-19T00:16:57.594Z,0.00
2019-03-19T00:17:57.563Z,0.00
2019-03-19T00:18:57.532Z,0.00
2019-03-19T00:19:57.502Z,0.00
2019-03-19T00:20:57.471Z,0.00
2019-03-19T00:21:57.436Z,0.00
2019-03-19T00:22:57.408Z,0.00
2019-03-19T00:23:57.373Z,0.00
2019-03-19T00:24:57.342Z,0.00
2019-03-19T00:25:57.309Z,0.00
2019-03-19T00:26:57.277Z,0.00
2019-03-19T00:27:57.246Z,0.00
2019-03-19T00:28:57.213Z,0.00
2019-03-19T00:29:57.180Z,0.00
2019-03-19T00:30:57.150Z,0.00
2019-03-19T00:31:57.117Z,0.00
2019-03-19T00:32:57.086Z,0.00
2019-03-19T00:33:57.053Z,0.00
2019-03-19T00:34:57.022Z,0.00
2019-03-19T00:35:56.988Z,0.00
2019-03-19T00:36:56.961Z,0.00
2019-03-19T00:37:56.925Z,0.00
2019-03-19T00:38:56.893Z,0.00
2019-03-19T00:39:56.861Z,0.00
2019-03-19T00:40:56.828Z,0.00
2019-03-19T00:41:56.795Z,0.00
2019-03-19T00:42:56.763Z,0.00
2019-03-19T00:43:56.732Z,0.00
2019-03-19T00:44:56.700Z,0.00
2019-03-19T00:45:56.667Z,0.00
2019-03-19T00:46:56.635Z,0.00
2019-03-19T00:47:56.603Z,0.00
2019-03-19T00:48:56.573Z,0.00
2019-03-19T00:49:56.542Z,0.00
2019-03-19T00:50:56.504Z,0.00
2019-03-19T00:51:56.525Z,0.00
2019-03-19T00:52:56.441Z,0.00
2019-03-19T00:53:56.409Z,0.00
2019-03-19T00:54:56.376Z,0.00
2019-03-19T00:55:56.351Z,0.00
2019-03-19T00:56:56.311Z,0.00
2019-03-19T00:57:56.279Z,0.00
2019-03-19T00:58:56.247Z,0.00
2019-03-19T00:59:56.214Z,0.00
2019-03-19T01:00:56.181Z,0.00
2019-03-19T01:01:56.150Z,0.00
2019-03-19T01:02:56.119Z,0.00
2019-03-19T01:03:56.086Z,0.00
2019-03-19T01:04:56.053Z,0.00
2019-03-19T01:05:56.028Z,0.00
2019-03-19T01:06:55.990Z,0.00
2019-03-19T01:07:55.961Z,0.00
2019-03-19T01:08:55.929Z,0.00
2019-03-19T01:09:55.893Z,0.00
2019-03-19T01:10:55.862Z,0.00
2019-03-19T01:11:55.831Z,0.00
2019-03-19T01:12:55.798Z,0.00
2019-03-19T01:13:55.765Z,0.00
2019-03-19T01:14:55.735Z,0.00
2019-03-19T01:15:55.701Z,0.00
2019-03-19T01:16:55.668Z,0.00
2019-03-19T01:17:55.638Z,0.00
2019-03-19T01:18:55.605Z,0.00
2019-03-19T01:19:55.573Z,0.00
2019-03-19T01:20:55.542Z,0.00
2019-03-19T01:21:55.510Z,0.00
2019-03-19T01:22:55.477Z,0.00
2019-03-19T01:23:55.444Z,0.00
2019-03-19T01:24:55.412Z,0.00
2019-03-19T01:25:55.969Z,0.00
2019-03-19T01:26:55.350Z,0.00
2019-03-19T01:27:55.318Z,0.00
2019-03-19T01:28:55.289Z,0.00
2019-03-19T01:29:55.253Z,0.00
2019-03-19T01:30:55.223Z,0.00
2019-03-19T01:31:55.190Z,0.00
2019-03-19T01:32:55.156Z,0.00
2019-03-19T01:33:55.124Z,0.00
2019-03-19T01:34:55.092Z,0.00
2019-03-19T01:35:55.061Z,0.00
2019-03-19T01:36:55.030Z,0.00
2019-03-19T01:37:54.996Z,0.00
2019-03-19T01:38:54.973Z,0.00
2019-03-19T01:39:54.934Z,0.00
2019-03-19T01:40:54.903Z,0.00
2019-03-19T01:41:54.867Z,0.00
2019-03-19T01:42:54.835Z,0.00
2019-03-19T01:43:54.803Z,0.00
2019-03-19T01:44:54.771Z,0.00
2019-03-19T01:45:54.739Z,0.00
2019-03-19T01:46:54.706Z,0.00
2019-03-19T01:47:54.678Z,0.00
2019-03-19T01:48:54.643Z,0.00
2019-03-19T01:49:54.611Z,0.00
2019-03-19T01:50:54.578Z,0.00
2019-03-19T01:51:54.547Z,0.00
2019-03-19T01:52:54.514Z,0.00
2019-03-19T01:53:54.481Z,0.00
2019-03-19T01:54:54.452Z,0.00
2019-03-19T01:56:04.459Z,0.00
2019-03-19T01:56:54.386Z,0.00
2019-03-19T01:57:54.354Z,0.00
2019-03-19T01:58:54.324Z,0.00
2019-03-19T01:59:54.289Z,0.00
2019-03-19T02:00:54.256Z,0.00
2019-03-19T02:01:54.225Z,0.00
2019-03-19T02:02:54.192Z,0.00
2019-03-19T02:03:54.160Z,0.00
2019-03-19T02:04:54.127Z,0.00
2019-03-19T02:05:54.095Z,0.00
2019-03-19T02:06:54.067Z,0.00
2019-03-19T02:07:54.030Z,0.00
2019-03-19T02:08:53.997Z,0.00
2019-03-19T02:09:53.966Z,0.00
2019-03-19T02:10:53.936Z,0.00
2019-03-19T02:11:53.901Z,0.00
2019-03-19T02:12:53.969Z,0.00
2019-03-19T02:13:53.837Z,0.00
2019-03-19T02:14:53.803Z,0.00
2019-03-19T02:15:53.772Z,0.00
2019-03-19T02:16:53.740Z,0.00
2019-03-19T02:17:53.707Z,0.00
2019-03-19T02:18:53.678Z,0.00
2019-03-19T02:19:53.643Z,0.00
2019-03-19T02:20:53.607Z,0.00
2019-03-19T02:21:53.577Z,0.00
2019-03-19T02:22:53.545Z,0.00
2019-03-19T02:23:53.514Z,0.00
2019-03-19T02:24:53.480Z,0.00
2019-03-19T02:25:53.448Z,0.00
2019-03-19T02:26:53.417Z,0.00
2019-03-19T02:27:53.384Z,0.00
2019-03-19T02:28:53.357Z,0.00
2019-03-19T02:29:53.327Z,0.00
2019-03-19T02:30:53.294Z,0.00
2019-03-19T02:31:53.267Z,0.00
2019-03-19T02:32:53.221Z,0.00
2019-03-19T02:33:53.197Z,0.00
2019-03-19T02:34:53.160Z,0.00
2019-03-19T02:35:53.141Z,0.00
2019-03-19T02:36:53.101Z,0.00
2019-03-19T02:37:53.173Z,0.00
2019-03-19T02:38:53.043Z,0.00
2019-03-19T02:39:53.003Z,0.00
2019-03-19T02:40:52.965Z,0.00
2019-03-19T02:41:52.938Z,0.00
2019-03-19T02:42:52.941Z,0.00
2019-03-19T02:43:52.866Z,0.00
2019-03-19T02:44:52.842Z,0.00
2019-03-19T02:45:52.801Z,0.00
2019-03-19T02:46:52.768Z,0.00
2019-03-19T02:47:52.751Z,0.00
2019-03-19T02:48:52.703Z,0.00
2019-03-19T02:49:52.671Z,0.00
2019-03-19T02:50:52.640Z,0.00
2019-03-19T02:51:52.608Z,0.00
2019-03-19T02:52:52.573Z,0.00
2019-03-19T02:53:52.542Z,0.00
2019-03-19T02:54:52.510Z,0.00
2019-03-19T02:55:52.476Z,0.00
2019-03-19T02:56:52.445Z,0.00
2019-03-19T02:57:52.411Z,0.00
2019-03-19T02:58:52.423Z,0.00
2019-03-19T02:59:52.362Z,0.00
2019-03-19T03:00:52.317Z,0.00
2019-03-19T03:01:52.293Z,0.00
2019-03-19T03:02:52.253Z,0.00
2019-03-19T03:03:52.220Z,0.00
2019-03-19T03:04:52.189Z,0.00
2019-03-19T03:05:52.154Z,0.00
2019-03-19T03:06:52.123Z,0.00
2019-03-19T03:07:52.098Z,0.00
2019-03-19T03:08:52.061Z,0.00
2019-03-19T03:09:52.026Z,0.00
2019-03-19T03:10:51.995Z,0.00
2019-03-19T03:11:51.961Z,0.00
2019-03-19T03:12:51.929Z,0.00
2019-03-19T03:13:51.898Z,0.00
2019-03-19T03:14:51.865Z,0.00
2019-03-19T03:15:51.832Z,0.00
2019-03-19T03:16:51.801Z,0.00
2019-03-19T03:17:51.772Z,0.00
2019-03-19T03:18:51.735Z,0.00
2019-03-19T03:19:51.703Z,0.00
2019-03-19T03:20:51.679Z,0.00
2019-03-19T03:21:51.636Z,0.00
2019-03-19T03:22:51.609Z,0.00
2019-03-19T03:23:51.574Z,0.00
2019-03-19T03:24:51.540Z,0.00
2019-03-19T03:25:51.508Z,0.00
2019-03-19T03:26:51.481Z,0.00
2019-03-19T03:27:51.441Z,0.00
2019-03-19T03:28:51.465Z,0.00
2019-03-19T03:29:51.377Z,0.00
2019-03-19T03:30:51.365Z,0.00
2019-03-19T03:31:51.313Z,0.00
2019-03-19T03:32:51.383Z,0.00
2019-03-19T03:33:51.247Z,0.00
2019-03-19T03:34:51.214Z,0.00
2019-03-19T03:35:51.188Z,0.00
2019-03-19T03:36:51.155Z,0.00
2019-03-19T03:37:51.121Z,0.00
2019-03-19T03:38:51.086Z,0.00
2019-03-19T03:39:51.050Z,0.00
2019-03-19T03:40:51.024Z,0.00
2019-03-19T03:41:50.986Z,0.00
2019-03-19T03:42:50.953Z,0.00
2019-03-19T03:43:50.921Z,0.00
2019-03-19T03:44:50.889Z,0.00
2019-03-19T03:45:50.864Z,0.00
2019-03-19T03:46:50.829Z,0.00
2019-03-19T03:47:50.792Z,0.00
2019-03-19T03:48:50.759Z,0.00
2019-03-19T03:49:50.726Z,0.00
2019-03-19T03:50:50.744Z,0.00
2019-03-19T03:51:50.663Z,0.00
2019-03-19T03:52:50.647Z,0.00
2019-03-19T03:53:50.596Z,0.00
2019-03-19T03:54:50.573Z,0.00
2019-03-19T03:55:50.537Z,0.00
2019-03-19T03:57:01.134Z,0.00
2019-03-19T03:57:50.466Z,0.00
2019-03-19T03:59:00.452Z,0.00
2019-03-19T03:59:50.402Z,0.00
2019-03-19T04:00:50.367Z,0.00
2019-03-19T04:01:50.335Z,0.00
2019-03-19T04:02:50.304Z,0.00
2019-03-19T04:03:50.271Z,0.00
2019-03-19T04:04:50.239Z,0.00
2019-03-19T04:05:50.206Z,0.00
2019-03-19T04:06:50.171Z,0.00
2019-03-19T04:07:50.140Z,0.00
2019-03-19T04:08:50.107Z,0.00
2019-03-19T04:09:50.073Z,0.00
2019-03-19T04:10:50.042Z,0.00
2019-03-19T04:11:50.011Z,0.00
2019-03-19T04:12:49.974Z,0.00
2019-03-19T04:13:49.943Z,0.00
2019-03-19T04:14:49.912Z,0.00
2019-03-19T04:15:49.876Z,0.00
2019-03-19T04:16:49.846Z,0.00
2019-03-19T04:17:49.814Z,0.00
2019-03-19T04:18:49.779Z,0.00
2019-03-19T04:19:49.751Z,0.00
2019-03-19T04:20:49.718Z,0.00
2019-03-19T04:21:49.724Z,0.00
2019-03-19T04:22:49.646Z,0.00
2019-03-19T04:23:49.617Z,0.00
2019-03-19T04:24:49.580Z,0.00
2019-03-19T04:25:49.547Z,0.00
2019-03-19T04:26:49.516Z,0.00
2019-03-19T04:27:49.482Z,0.00
2019-03-19T04:28:49.453Z,0.00
2019-03-19T04:29:49.414Z,0.00
2019-03-19T04:30:49.380Z,0.00
2019-03-19T04:31:49.347Z,0.00
2019-03-19T04:32:49.317Z,0.00
2019-03-19T04:33:49.280Z,0.00
2019-03-19T04:34:49.248Z,0.00
2019-03-19T04:35:49.215Z,0.00
2019-03-19T04:36:49.181Z,0.00
2019-03-19T04:37:49.147Z,0.00
2019-03-19T04:38:49.115Z,0.00
2019-03-19T04:39:49.080Z,0.00
2019-03-19T04:40:49.755Z,0.00
2019-03-19T04:41:49.014Z,0.00
2019-03-19T04:42:48.981Z,0.00
2019-03-19T04:43:48.948Z,0.00
2019-03-19T04:44:48.914Z,4.00
2019-03-19T04:45:48.881Z,4.00
2019-03-19T04:46:48.846Z,0.00
2019-03-19T04:47:48.815Z,4.00
2019-03-19T04:48:48.782Z,0.00
2019-03-19T04:49:48.750Z,4.00
2019-03-19T04:50:48.715Z,4.00
2019-03-19T04:51:48.681Z,4.00
2019-03-19T04:52:48.646Z,8.00
2019-03-19T04:53:48.618Z,12.00
2019-03-19T04:54:48.581Z,12.00
2019-03-19T04:55:48.548Z,12.00
2019-03-19T04:56:48.515Z,16.00
2019-03-19T04:57:48.481Z,16.00
2019-03-19T04:58:48.446Z,24.00
2019-03-19T04:59:48.413Z,24.00
2019-03-19T05:00:48.380Z,32.00
2019-03-19T05:01:48.347Z,40.00
2019-03-19T05:02:48.318Z,44.00
2019-03-19T05:03:48.280Z,52.00
2019-03-19T05:04:48.245Z,64.00
2019-03-19T05:05:48.215Z,72.00
2019-03-19T05:06:48.180Z,84.00
2019-03-19T05:07:48.151Z,96.00
2019-03-19T05:08:48.114Z,116.00
2019-03-19T05:09:48.078Z,132.00
2019-03-19T05:10:48.047Z,152.00
2019-03-19T05:11:48.010Z,176.00
2019-03-19T05:12:47.982Z,200.00
2019-03-19T05:13:47.945Z,228.00
2019-03-19T05:14:47.910Z,256.00
2019-03-19T05:15:47.877Z,288.00
2019-03-19T05:16:47.846Z,324.00
2019-03-19T05:17:47.810Z,360.00
2019-03-19T05:18:47.776Z,400.00
2019-03-19T05:19:47.744Z,440.00
2019-03-19T05:20:47.734Z,484.00
2019-03-19T05:21:47.674Z,532.00
2019-03-19T05:22:47.641Z,588.00
2019-03-19T05:23:47.609Z,640.00
2019-03-19T05:24:47.575Z,696.00
2019-03-19T05:25:47.541Z,752.00
2019-03-19T05:26:47.507Z,816.00
2019-03-19T05:27:47.474Z,884.00
2019-03-19T05:28:47.440Z,948.00
2019-03-19T05:29:47.408Z,1020.00
2019-03-19T05:30:47.372Z,1088.00
2019-03-19T05:31:47.339Z,1164.00
2019-03-19T05:32:47.307Z,1240.00
2019-03-19T05:33:47.272Z,1316.00
2019-03-19T05:34:47.239Z,1392.00
2019-03-19T05:35:47.207Z,1476.00
2019-03-19T05:36:47.173Z,1552.00
2019-03-19T05:37:47.141Z,1636.00
2019-03-19T05:38:47.108Z,1724.00
2019-03-19T05:39:47.071Z,1824.00
2019-03-19T05:40:47.037Z,1940.00
2019-03-19T05:41:47.004Z,2084.00
2019-03-19T05:42:46.970Z,2264.00
2019-03-19T05:43:46.936Z,2484.00
2019-03-19T05:44:46.903Z,2756.00
2019-03-19T05:45:46.869Z,3036.00
2019-03-19T05:46:46.839Z,3252.00
2019-03-19T05:47:46.805Z,3368.00
2019-03-19T05:48:46.769Z,3408.00
2019-03-19T05:49:46.735Z,3460.00
2019-03-19T05:50:46.703Z,3504.00
2019-03-19T05:51:46.669Z,3496.00
2019-03-19T05:52:48.558Z,3472.00
2019-03-19T05:53:46.605Z,3468.00
2019-03-19T05:54:46.569Z,3556.00
2019-03-19T05:55:46.537Z,3700.00
2019-03-19T05:56:46.502Z,3816.00
2019-03-19T05:57:50.065Z,3904.00
2019-03-19T05:58:46.437Z,3976.00
2019-03-19T05:59:46.405Z,4092.00
2019-03-19T06:00:46.372Z,4248.00
2019-03-19T06:01:46.339Z,4428.00
2019-03-19T06:02:46.304Z,4632.00
2019-03-19T06:03:46.273Z,4872.00
2019-03-19T06:04:46.239Z,5132.00
2019-03-19T06:05:46.209Z,5364.00
2019-03-19T06:06:46.173Z,5612.00
2019-03-19T06:07:46.141Z,5888.00
2019-03-19T06:08:46.107Z,6040.00
2019-03-19T06:09:46.074Z,6140.00
2019-03-19T06:10:46.042Z,6176.00
2019-03-19T06:11:46.011Z,6148.00
2019-03-19T06:12:45.977Z,5928.00
2019-03-19T06:13:45.944Z,5620.00
2019-03-19T06:14:45.912Z,5396.00
2019-03-19T06:15:45.879Z,5384.00
2019-03-19T06:16:45.853Z,5424.00
2019-03-19T06:17:45.821Z,5720.00
2019-03-19T06:18:45.785Z,6476.00
2019-03-19T06:19:45.753Z,7008.00
2019-03-19T06:20:45.717Z,6444.00
2019-03-19T06:21:45.687Z,5912.00
2019-03-19T06:22:45.658Z,5592.00
2019-03-19T06:23:45.624Z,7560.00
2019-03-19T06:24:45.591Z,6956.00
2019-03-19T06:25:45.560Z,7196.00
2019-03-19T06:26:45.527Z,7024.00
2019-03-19T06:27:45.496Z,8600.00
2019-03-19T06:28:45.465Z,8496.00
2019-03-19T06:29:45.436Z,8708.00
2019-03-19T06:30:45.403Z,6384.00
2019-03-19T06:31:45.372Z,7308.00
2019-03-19T06:32:45.341Z,9504.00
2019-03-19T06:33:45.310Z,9860.00
2019-03-19T06:34:45.285Z,10328.00
2019-03-19T06:35:45.251Z,10660.00
2019-03-19T06:36:45.219Z,11068.00
2019-03-19T06:37:45.190Z,11424.00
2019-03-19T06:38:45.161Z,11416.00
2019-03-19T06:39:45.133Z,11636.00
2019-03-19T06:40:45.103Z,12816.00
2019-03-19T06:41:45.074Z,15488.00
2019-03-19T06:42:45.045Z,18528.00
2019-03-19T06:43:45.017Z,20608.00
2019-03-19T06:44:44.989Z,21184.00
2019-03-19T06:45:44.961Z,20704.00
2019-03-19T06:46:44.932Z,20128.00
2019-03-19T06:47:44.906Z,19872.00
2019-03-19T06:48:44.876Z,17856.00
2019-03-19T06:49:44.855Z,12296.00
2019-03-19T06:50:45.712Z,10976.00
2019-03-19T06:51:44.796Z,10480.00
2019-03-19T06:52:44.770Z,9520.00
2019-03-19T06:53:44.741Z,8476.00
2019-03-19T06:54:44.714Z,8192.00
2019-03-19T06:55:44.687Z,8056.00
2019-03-19T06:56:44.663Z,8036.00
2019-03-19T06:57:44.637Z,8384.00
2019-03-19T06:58:44.601Z,8528.00
2019-03-19T06:59:44.575Z,8152.00
2019-03-19T07:00:44.550Z,7968.00
2019-03-19T07:01:44.521Z,8044.00
2019-03-19T07:02:44.489Z,8232.00
2019-03-19T07:03:44.459Z,8200.00
2019-03-19T07:04:44.430Z,8040.00
2019-03-19T07:05:44.401Z,7808.00
2019-03-19T07:06:44.373Z,7772.00
2019-03-19T07:07:44.343Z,7816.00
2019-03-19T07:08:44.313Z,8120.00
2019-03-19T07:09:44.283Z,8504.00
2019-03-19T07:10:44.253Z,9096.00
2019-03-19T07:11:44.226Z,9700.00
2019-03-19T07:12:44.263Z,9892.00
2019-03-19T07:13:44.163Z,9996.00
2019-03-19T07:14:44.134Z,10124.00
2019-03-19T07:15:44.105Z,9788.00
2019-03-19T07:16:44.076Z,9444.00
2019-03-19T07:17:44.043Z,9384.00
2019-03-19T07:18:44.014Z,9492.00
2019-03-19T07:19:43.990Z,9068.00
2019-03-19T07:20:43.953Z,8236.00
2019-03-19T07:21:43.931Z,8016.00
2019-03-19T07:22:43.893Z,8748.00
2019-03-19T07:23:43.864Z,9776.00
2019-03-19T07:24:43.835Z,26496.00
2019-03-19T07:25:43.801Z,27680.00
2019-03-19T07:26:43.771Z,23168.00
2019-03-19T07:27:43.741Z,29440.00
2019-03-19T07:28:43.719Z,33504.00
2019-03-19T07:29:43.687Z,35232.00
2019-03-19T07:30:43.652Z,35968.00
2019-03-19T07:31:43.624Z,27040.00
2019-03-19T07:32:43.593Z,42528.00
2019-03-19T07:33:43.566Z,41696.00
2019-03-19T07:34:43.538Z,31808.00
2019-03-19T07:35:43.510Z,22912.00
2019-03-19T07:36:43.484Z,21024.00
2019-03-19T07:37:43.453Z,20800.00
2019-03-19T07:38:43.426Z,20864.00
2019-03-19T07:39:43.400Z,20288.00
2019-03-19T07:40:43.372Z,19488.00
2019-03-19T07:41:43.343Z,19520.00
2019-03-19T07:42:43.329Z,18240.00
2019-03-19T07:43:43.291Z,18688.00
2019-03-19T07:44:43.265Z,18976.00
2019-03-19T07:45:43.233Z,18112.00
2019-03-19T07:46:45.713Z,17888.00
2019-03-19T07:47:43.184Z,18016.00
2019-03-19T07:48:43.152Z,17664.00
2019-03-19T07:49:43.121Z,16680.00
2019-03-19T07:50:43.095Z,16400.00
2019-03-19T07:51:43.065Z,16816.00
2019-03-19T07:52:43.041Z,17472.00
2019-03-19T07:53:43.009Z,17536.00
2019-03-19T07:54:42.979Z,17568.00
2019-03-19T07:55:42.957Z,18016.00
2019-03-19T07:56:42.927Z,19104.00
2019-03-19T07:57:42.895Z,20288.00
2019-03-19T07:58:45.556Z,19808.00
2019-03-19T07:59:42.841Z,18496.00
2019-03-19T08:00:42.809Z,17600.00
2019-03-19T08:01:42.780Z,16688.00
2019-03-19T08:02:42.754Z,17192.00
2019-03-19T08:03:42.724Z,14536.00
2019-03-19T08:04:42.695Z,15400.00
2019-03-19T08:05:42.665Z,16776.00
2019-03-19T08:06:42.637Z,13428.00
2019-03-19T08:07:42.608Z,37152.00
2019-03-19T08:08:42.580Z,36672.00
2019-03-19T08:09:42.557Z,35808.00
2019-03-19T08:10:42.523Z,35584.00
2019-03-19T08:11:42.497Z,36000.00
2019-03-19T08:12:42.469Z,37664.00
2019-03-19T08:13:42.443Z,38432.00
2019-03-19T08:14:42.415Z,36960.00
2019-03-19T08:15:42.387Z,35392.00
2019-03-19T08:16:42.360Z,37472.00
2019-03-19T08:17:43.134Z,40064.00
2019-03-19T08:18:42.307Z,39200.00
2019-03-19T08:19:42.282Z,35360.00
2019-03-19T08:20:42.255Z,29760.00
2019-03-19T08:21:42.235Z,28352.00
2019-03-19T08:22:42.203Z,30528.00
2019-03-19T08:23:42.178Z,33024.00
2019-03-19T08:24:42.152Z,32128.00
2019-03-19T08:25:42.138Z,30336.00
2019-03-19T08:26:42.102Z,23904.00
2019-03-19T08:27:42.079Z,27232.00
2019-03-19T08:28:42.051Z,27456.00
2019-03-19T08:29:42.029Z,28768.00
2019-03-19T08:30:42.005Z,29184.00
2019-03-19T08:31:42.031Z,29184.00
2019-03-19T08:32:41.954Z,29600.00
2019-03-19T08:33:41.930Z,29824.00
2019-03-19T08:34:41.907Z,31360.00
2019-03-19T08:35:41.884Z,32864.00
2019-03-19T08:36:41.857Z,26048.00
2019-03-19T08:37:41.834Z,35264.00
2019-03-19T08:38:41.812Z,41184.00
2019-03-19T08:39:41.789Z,39712.00
2019-03-19T08:40:41.764Z,41408.00
2019-03-19T08:41:41.739Z,17148.00
2019-03-19T08:42:41.717Z,26528.00
2019-03-19T08:43:41.692Z,20640.00
2019-03-19T08:44:41.668Z,41408.00
2019-03-19T08:45:41.644Z,48416.00
2019-03-19T08:46:41.623Z,49600.00
2019-03-19T08:47:41.596Z,46080.00
2019-03-19T08:48:41.574Z,28320.00
2019-03-19T08:49:41.549Z,43488.00
2019-03-19T08:50:41.523Z,45152.00
2019-03-19T08:51:41.499Z,49984.00
2019-03-19T08:52:41.479Z,56544.00
2019-03-19T08:53:41.452Z,56288.00
2019-03-19T08:54:41.428Z,14696.00
2019-03-19T08:55:41.410Z,12820.00
2019-03-19T08:56:41.383Z,14452.00
2019-03-19T08:57:41.357Z,18144.00
2019-03-19T08:58:41.331Z,23520.00
2019-03-19T08:59:41.307Z,22080.00
2019-03-19T09:00:41.282Z,38272.00
2019-03-19T09:01:41.258Z,22848.00
2019-03-19T09:02:41.232Z,27168.00
2019-03-19T09:03:41.208Z,32992.00
2019-03-19T09:04:41.180Z,32192.00
2019-03-19T09:05:41.155Z,27168.00
2019-03-19T09:06:41.130Z,43168.00
2019-03-19T09:07:41.106Z,22528.00
2019-03-19T09:08:41.078Z,23616.00
2019-03-19T09:09:41.051Z,26944.00
2019-03-19T09:10:41.027Z,29056.00
2019-03-19T09:11:41.000Z,65056.00
2019-03-19T09:12:40.973Z,24928.00
2019-03-19T09:13:40.948Z,23552.00
2019-03-19T09:14:40.924Z,28352.00
2019-03-19T09:15:42.485Z,24736.00
2019-03-19T09:16:40.870Z,23520.00
2019-03-19T09:17:40.842Z,68832.00
2019-03-19T09:18:40.816Z,70176.00
2019-03-19T09:19:40.791Z,28288.00
2019-03-19T09:20:40.767Z,28736.00
2019-03-19T09:21:40.738Z,28384.00
2019-03-19T09:22:40.713Z,62784.00
2019-03-19T09:23:40.686Z,17344.00
2019-03-19T09:24:40.660Z,13924.00
2019-03-19T09:25:40.635Z,12052.00
2019-03-19T09:26:40.608Z,12516.00
2019-03-19T09:27:40.586Z,15024.00
2019-03-19T09:28:40.554Z,18144.00
2019-03-19T09:29:40.529Z,21792.00
2019-03-19T09:30:40.502Z,25248.00
2019-03-19T09:31:40.475Z,27648.00
2019-03-19T09:32:40.453Z,32064.00
2019-03-19T09:33:40.423Z,37152.00
2019-03-19T09:34:40.397Z,52608.00
2019-03-19T09:35:40.369Z,45792.00
2019-03-19T09:36:40.342Z,18784.00
2019-03-19T09:37:44.465Z,15136.00
2019-03-19T09:38:40.289Z,15144.00
2019-03-19T09:39:40.265Z,15548.00
2019-03-19T09:40:40.237Z,14780.00
2019-03-19T09:41:40.212Z,13932.00
2019-03-19T09:42:40.185Z,15948.00
2019-03-19T09:43:40.161Z,20640.00
2019-03-19T09:44:40.131Z,23616.00
2019-03-19T09:45:40.105Z,22976.00
2019-03-19T09:46:40.080Z,21984.00
2019-03-19T09:47:40.053Z,23680.00
2019-03-19T09:48:40.027Z,28320.00
2019-03-19T09:49:40.000Z,31456.00
2019-03-19T09:50:39.974Z,33856.00
2019-03-19T09:51:39.946Z,28256.00
2019-03-19T09:52:39.919Z,24160.00
2019-03-19T09:53:39.893Z,21856.00
2019-03-19T09:54:39.866Z,20800.00
2019-03-19T09:55:39.842Z,21408.00
2019-03-19T09:56:39.815Z,21760.00
2019-03-19T09:57:39.789Z,20128.00
2019-03-19T09:58:39.762Z,17440.00
2019-03-19T09:59:42.034Z,16788.00
2019-03-19T10:00:39.707Z,19360.00
2019-03-19T10:01:39.681Z,21568.00
2019-03-19T10:02:39.654Z,25920.00
2019-03-19T10:03:39.627Z,29568.00
2019-03-19T10:04:39.601Z,32256.00
2019-03-19T10:05:39.573Z,29504.00
2019-03-19T10:06:39.545Z,22240.00
2019-03-19T10:07:39.519Z,14836.00
2019-03-19T10:08:39.492Z,12892.00
2019-03-19T10:09:39.465Z,12976.00
2019-03-19T10:10:39.467Z,12756.00
2019-03-19T10:11:39.414Z,12468.00
2019-03-19T10:12:39.384Z,12232.00
2019-03-19T10:13:39.358Z,12192.00
2019-03-19T10:14:39.330Z,12512.00
2019-03-19T10:15:39.302Z,13640.00
2019-03-19T10:16:39.274Z,16160.00
2019-03-19T10:17:39.245Z,19616.00
2019-03-19T10:18:39.217Z,22368.00
2019-03-19T10:19:39.190Z,26528.00
2019-03-19T10:20:39.161Z,77472.00
2019-03-19T10:21:39.135Z,88576.00
2019-03-19T10:22:39.107Z,48832.00
2019-03-19T10:23:39.082Z,98080.00
2019-03-19T10:24:39.051Z,84128.00
2019-03-19T10:25:39.025Z,82336.00
2019-03-19T10:26:39.000Z,76960.00
2019-03-19T10:27:38.971Z,97216.00
2019-03-19T10:28:38.950Z,68128.00
2019-03-19T10:29:38.957Z,78976.00
2019-03-19T10:30:38.898Z,65376.00
2019-03-19T10:31:38.868Z,31936.00
2019-03-19T10:32:38.841Z,26080.00
2019-03-19T10:33:38.834Z,23552.00
2019-03-19T10:34:38.792Z,22944.00
2019-03-19T10:35:38.765Z,21984.00
2019-03-19T10:36:38.740Z,19744.00
2019-03-19T10:37:38.749Z,14964.00
2019-03-19T10:38:38.691Z,13728.00
2019-03-19T10:39:38.679Z,14680.00
2019-03-19T10:40:38.641Z,17208.00
2019-03-19T10:41:38.612Z,20896.00
2019-03-19T10:42:38.585Z,26304.00
2019-03-19T10:43:38.558Z,31168.00
2019-03-19T10:44:38.530Z,31904.00
2019-03-19T10:45:38.512Z,31584.00
2019-03-19T10:46:38.480Z,31968.00
2019-03-19T10:47:38.452Z,33984.00
2019-03-19T10:48:38.431Z,35680.00
2019-03-19T10:49:38.401Z,66016.00
2019-03-19T10:50:38.376Z,83392.00
2019-03-19T10:51:38.350Z,75104.00
2019-03-19T10:52:38.321Z,37632.00
2019-03-19T10:53:38.311Z,33056.00
2019-03-19T10:54:38.271Z,42816.00
2019-03-19T10:55:38.246Z,16512.00
2019-03-19T10:56:39.015Z,15024.00
2019-03-19T10:57:38.194Z,16112.00
2019-03-19T10:58:38.174Z,17536.00
2019-03-19T10:59:48.543Z,16908.00
2019-03-19T11:00:38.118Z,16356.00
2019-03-19T11:01:38.094Z,16768.00
2019-03-19T11:02:38.068Z,19328.00
2019-03-19T11:03:38.043Z,19360.00
2019-03-19T11:04:38.017Z,18912.00
2019-03-19T11:05:37.998Z,17400.00
2019-03-19T11:06:38.015Z,15784.00
2019-03-19T11:07:37.941Z,15184.00
2019-03-19T11:08:37.913Z,15872.00
2019-03-19T11:09:37.888Z,17204.00
2019-03-19T11:10:37.861Z,19168.00
2019-03-19T11:11:37.836Z,21312.00
2019-03-19T11:12:37.808Z,23424.00
2019-03-19T11:13:37.786Z,24960.00
2019-03-19T11:14:37.758Z,26400.00
2019-03-19T11:15:37.731Z,27456.00
2019-03-19T11:16:37.704Z,74528.00
2019-03-19T11:17:37.678Z,71872.00
2019-03-19T11:18:37.651Z,70560.00
2019-03-19T11:19:37.624Z,23744.00
2019-03-19T11:20:37.599Z,17760.00
2019-03-19T11:21:37.572Z,13724.00
2019-03-19T11:22:37.545Z,11732.00
2019-03-19T11:23:37.518Z,10948.00
2019-03-19T11:24:37.493Z,11440.00
2019-03-19T11:25:37.465Z,12752.00
2019-03-19T11:26:37.439Z,14904.00
2019-03-19T11:27:37.416Z,17620.00
2019-03-19T11:28:37.385Z,20384.00
2019-03-19T11:29:37.361Z,37792.00
2019-03-19T11:30:37.332Z,32928.00
2019-03-19T11:31:37.307Z,66912.00
2019-03-19T11:32:37.278Z,62272.00
2019-03-19T11:33:37.253Z,43232.00
2019-03-19T11:34:37.229Z,19360.00
2019-03-19T11:35:37.200Z,19648.00
2019-03-19T11:36:37.173Z,17704.00
2019-03-19T11:37:37.147Z,16192.00
2019-03-19T11:38:37.121Z,15528.00
2019-03-19T11:39:37.094Z,15092.00
2019-03-19T11:40:37.068Z,15212.00
2019-03-19T11:41:37.042Z,15920.00
2019-03-19T11:42:37.016Z,17164.00
2019-03-19T11:43:36.991Z,47168.00
2019-03-19T11:44:36.962Z,70400.00
2019-03-19T11:45:36.938Z,45248.00
2019-03-19T11:46:36.909Z,17296.00
2019-03-19T11:47:36.883Z,16536.00
2019-03-19T11:48:36.857Z,16964.00
2019-03-19T11:49:36.830Z,17496.00
2019-03-19T11:50:36.805Z,17744.00
2019-03-19T11:51:36.776Z,17896.00
2019-03-19T11:52:36.750Z,18368.00
2019-03-19T11:53:36.726Z,18816.00
2019-03-19T11:54:36.697Z,19168.00
2019-03-19T11:55:36.672Z,20640.00
2019-03-19T11:56:36.642Z,20256.00
2019-03-19T11:57:36.617Z,18120.00
2019-03-19T11:58:36.591Z,19104.00
2019-03-19T11:59:36.565Z,64512.00
2019-03-19T12:00:36.535Z,50432.00
2019-03-19T12:01:36.511Z,60768.00
2019-03-19T12:02:36.487Z,44960.00
2019-03-19T12:03:36.457Z,80864.00
2019-03-19T12:04:36.430Z,84352.00
2019-03-19T12:05:36.403Z,88512.00
2019-03-19T12:06:36.378Z,93792.00
2019-03-19T12:07:36.352Z,96512.00
2019-03-19T12:08:36.324Z,95840.00
2019-03-19T12:09:36.300Z,92896.00
2019-03-19T12:10:36.275Z,90816.00
2019-03-19T12:11:36.249Z,32960.00
2019-03-19T12:12:36.226Z,29856.00
2019-03-19T12:13:36.200Z,28064.00
2019-03-19T12:14:36.176Z,27360.00
2019-03-19T12:15:36.153Z,27104.00
2019-03-19T12:16:36.126Z,26944.00
2019-03-19T12:17:36.101Z,26208.00
2019-03-19T12:18:36.077Z,25120.00
2019-03-19T12:19:36.086Z,24160.00
2019-03-19T12:20:36.029Z,23968.00
2019-03-19T12:21:36.006Z,24320.00
2019-03-19T12:22:35.981Z,25664.00
2019-03-19T12:23:35.956Z,27840.00
2019-03-19T12:24:35.929Z,32448.00